sensor_id;sensor_type;location;lat;lon;timestamp;temperature;humidity
38866;DHT22;62686;48.984;8.394;2023-05-10T00:00:01;13.30;99.90
38866;DHT22;62686;48.984;8.394;2023-05-10T00:02:31;13.30;99.90
38866;DHT22;62686;48.984;8.394;2023-05-10T00:04:59;13.30;99.90
38866;DHT22;62686;48.984;8.394;2023-05-10T00:07:30;13.20;99.90
38866;DHT22;62686;48.984;8.394;2023-05-10T00:09:59;13.20;99.90
38866;DHT22;62686;48.984;8.394;2023-05-10T00:12:27;13.30;99.90
38866;DHT22;62686;48.984;8.394;2023-05-10T00:14:55;13.20;99.90
38866;DHT22;62686;48.984;8.394;2023-05-10T00:17:25;13.30;99.90
38866;DHT22;62686;48.984;8.394;2023-05-10T00:19:53;13.30;99.90
38866;DHT22;62686;48.984;8.394;2023-05-10T00:22:21;13.30;99.90
38866;DHT22;62686;48.984;8.394;2023-05-10T00:24:49;13.20;99.90
38866;DHT22;62686;48.984;8.394;2023-05-10T00:27:18;13.20;99.90
38866;DHT22;62686;48.984;8.394;2023-05-10T00:29:46;13.20;99.90
38866;DHT22;62686;48.984;8.394;2023-05-10T00:32:14;13.20;99.90
38866;DHT22;62686;48.984;8.394;2023-05-10T00:34:44;13.10;99.90
38866;DHT22;62686;48.984;8.394;2023-05-10T00:37:13;13.20;99.90
38866;DHT22;62686;48.984;8.394;2023-05-10T00:39:41;13.20;99.90
38866;DHT22;62686;48.984;8.394;2023-05-10T00:42:09;13.20;99.90
38866;DHT22;62686;48.984;8.394;2023-05-10T00:44:37;13.20;99.90
38866;DHT22;62686;48.984;8.394;2023-05-10T00:47:05;13.10;99.90
38866;DHT22;62686;48.984;8.394;2023-05-10T00:49:34;13.20;99.90
38866;DHT22;62686;48.984;8.394;2023-05-10T00:52:04;13.20;99.90
38866;DHT22;62686;48.984;8.394;2023-05-10T00:54:32;13.20;99.90
38866;DHT22;62686;48.984;8.394;2023-05-10T00:57:01;13.20;99.90
38866;DHT22;62686;48.984;8.394;2023-05-10T00:59:30;13.20;99.90
38866;DHT22;62686;48.984;8.394;2023-05-10T01:01:58;13.20;99.90
38866;DHT22;62686;48.984;8.394;2023-05-10T01:04:26;13.20;99.90
38866;DHT22;62686;48.984;8.394;2023-05-10T01:06:55;13.20;99.90
38866;DHT22;62686;48.984;8.394;2023-05-10T01:09:25;13.20;99.90
38866;DHT22;62686;48.984;8.394;2023-05-10T01:11:54;13.20;99.90
38866;DHT22;62686;48.984;8.394;2023-05-10T01:14:23;13.20;99.90
38866;DHT22;62686;48.984;8.394;2023-05-10T01:16:53;13.20;99.90
38866;DHT22;62686;48.984;8.394;2023-05-10T01:19:23;13.20;99.90
38866;DHT22;62686;48.984;8.394;2023-05-10T01:22:01;13.30;99.90
38866;DHT22;62686;48.984;8.394;2023-05-10T01:25:04;13.30;99.90
38866;DHT22;62686;48.984;8.394;2023-05-10T01:27:57;13.20;99.90
38866;DHT22;62686;48.984;8.394;2023-05-10T01:30:56;13.20;99.90
38866;DHT22;62686;48.984;8.394;2023-05-10T01:33:36;13.20;99.90
38866;DHT22;62686;48.984;8.394;2023-05-10T01:36:13;13.20;99.90
38866;DHT22;62686;48.984;8.394;2023-05-10T01:38:47;13.10;99.90
38866;DHT22;62686;48.984;8.394;2023-05-10T01:41:22;13.00;99.90
38866;DHT22;62686;48.984;8.394;2023-05-10T01:43:55;13.00;99.90
38866;DHT22;62686;48.984;8.394;2023-05-10T01:46:31;12.90;99.90
38866;DHT22;62686;48.984;8.394;2023-05-10T01:49:03;12.90;99.90
38866;DHT22;62686;48.984;8.394;2023-05-10T01:51:40;12.90;99.90
38866;DHT22;62686;48.984;8.394;2023-05-10T01:54:11;13.00;99.90
38866;DHT22;62686;48.984;8.394;2023-05-10T01:56:41;13.00;99.90
38866;DHT22;62686;48.984;8.394;2023-05-10T01:59:13;13.00;99.90
38866;DHT22;62686;48.984;8.394;2023-05-10T02:01:44;13.10;99.90
38866;DHT22;62686;48.984;8.394;2023-05-10T02:04:16;13.10;99.90
38866;DHT22;62686;48.984;8.394;2023-05-10T02:06:46;13.10;99.90
38866;DHT22;62686;48.984;8.394;2023-05-10T02:09:15;13.20;99.90
38866;DHT22;62686;48.984;8.394;2023-05-10T02:11:44;13.20;99.90
38866;DHT22;62686;48.984;8.394;2023-05-10T02:14:13;13.20;99.90
38866;DHT22;62686;48.984;8.394;2023-05-10T02:16:43;13.20;99.90
38866;DHT22;62686;48.984;8.394;2023-05-10T02:19:13;13.10;99.90
38866;DHT22;62686;48.984;8.394;2023-05-10T02:21:43;13.10;99.90
38866;DHT22;62686;48.984;8.394;2023-05-10T02:24:13;13.10;99.90
38866;DHT22;62686;48.984;8.394;2023-05-10T02:26:44;13.10;99.90
38866;DHT22;62686;48.984;8.394;2023-05-10T02:29:14;13.10;99.90
38866;DHT22;62686;48.984;8.394;2023-05-10T02:31:44;13.10;99.90
38866;DHT22;62686;48.984;8.394;2023-05-10T02:34:14;13.10;99.90
38866;DHT22;62686;48.984;8.394;2023-05-10T02:36:43;13.10;99.90
38866;DHT22;62686;48.984;8.394;2023-05-10T02:39:11;13.00;99.90
38866;DHT22;62686;48.984;8.394;2023-05-10T02:41:41;13.00;99.90
38866;DHT22;62686;48.984;8.394;2023-05-10T02:44:10;13.10;99.90
38866;DHT22;62686;48.984;8.394;2023-05-10T02:46:38;13.00;99.90
38866;DHT22;62686;48.984;8.394;2023-05-10T02:49:06;13.00;99.90
38866;DHT22;62686;48.984;8.394;2023-05-10T02:51:42;13.00;99.90
38866;DHT22;62686;48.984;8.394;2023-05-10T02:54:18;13.00;99.90
38866;DHT22;62686;48.984;8.394;2023-05-10T02:56:49;13.10;99.90
38866;DHT22;62686;48.984;8.394;2023-05-10T02:59:18;13.10;99.90
38866;DHT22;62686;48.984;8.394;2023-05-10T03:01:46;13.10;99.90
38866;DHT22;62686;48.984;8.394;2023-05-10T03:04:14;13.10;99.90
38866;DHT22;62686;48.984;8.394;2023-05-10T03:06:45;13.00;99.90
38866;DHT22;62686;48.984;8.394;2023-05-10T03:09:13;12.90;99.90
38866;DHT22;62686;48.984;8.394;2023-05-10T03:11:55;12.90;99.90
38866;DHT22;62686;48.984;8.394;2023-05-10T03:14:34;12.80;99.90
38866;DHT22;62686;48.984;8.394;2023-05-10T03:17:11;12.80;99.90
38866;DHT22;62686;48.984;8.394;2023-05-10T03:19:46;12.70;99.90
38866;DHT22;62686;48.984;8.394;2023-05-10T03:22:25;12.70;99.90
38866;DHT22;62686;48.984;8.394;2023-05-10T03:24:55;12.60;99.90
38866;DHT22;62686;48.984;8.394;2023-05-10T03:27:26;12.60;99.90
38866;DHT22;62686;48.984;8.394;2023-05-10T03:29:55;12.50;99.90
38866;DHT22;62686;48.984;8.394;2023-05-10T03:32:23;12.40;99.90
38866;DHT22;62686;48.984;8.394;2023-05-10T03:34:52;12.50;99.90
38866;DHT22;62686;48.984;8.394;2023-05-10T03:37:21;12.50;99.90
38866;DHT22;62686;48.984;8.394;2023-05-10T03:39:49;12.40;99.90
38866;DHT22;62686;48.984;8.394;2023-05-10T03:42:18;12.40;99.90
38866;DHT22;62686;48.984;8.394;2023-05-10T03:44:46;12.40;99.90
38866;DHT22;62686;48.984;8.394;2023-05-10T03:47:15;12.40;99.90
38866;DHT22;62686;48.984;8.394;2023-05-10T03:49:46;12.50;99.90
38866;DHT22;62686;48.984;8.394;2023-05-10T03:52:14;12.50;99.90
38866;DHT22;62686;48.984;8.394;2023-05-10T03:54:44;12.50;99.90
38866;DHT22;62686;48.984;8.394;2023-05-10T03:57:12;12.50;99.90
38866;DHT22;62686;48.984;8.394;2023-05-10T03:59:40;12.50;99.90
38866;DHT22;62686;48.984;8.394;2023-05-10T04:02:08;12.50;99.90
38866;DHT22;62686;48.984;8.394;2023-05-10T04:04:36;12.60;99.90
38866;DHT22;62686;48.984;8.394;2023-05-10T04:07:04;12.60;99.90
38866;DHT22;62686;48.984;8.394;2023-05-10T04:09:33;12.60;99.90
38866;DHT22;62686;48.984;8.394;2023-05-10T04:12:03;12.60;99.90
38866;DHT22;62686;48.984;8.394;2023-05-10T04:14:31;12.60;99.90
38866;DHT22;62686;48.984;8.394;2023-05-10T04:16:59;12.70;99.90
38866;DHT22;62686;48.984;8.394;2023-05-10T04:19:29;12.70;99.90
38866;DHT22;62686;48.984;8.394;2023-05-10T04:21:58;12.70;99.90
38866;DHT22;62686;48.984;8.394;2023-05-10T04:24:26;12.70;99.90
38866;DHT22;62686;48.984;8.394;2023-05-10T04:26:54;12.80;99.90
38866;DHT22;62686;48.984;8.394;2023-05-10T04:29:24;12.90;99.90
38866;DHT22;62686;48.984;8.394;2023-05-10T04:31:53;12.90;99.90
38866;DHT22;62686;48.984;8.394;2023-05-10T04:34:23;12.90;99.90
38866;DHT22;62686;48.984;8.394;2023-05-10T04:36:52;12.90;99.90
38866;DHT22;62686;48.984;8.394;2023-05-10T04:39:20;13.00;99.90
38866;DHT22;62686;48.984;8.394;2023-05-10T04:41:48;13.00;99.90
38866;DHT22;62686;48.984;8.394;2023-05-10T04:44:16;13.10;99.90
38866;DHT22;62686;48.984;8.394;2023-05-10T04:46:46;13.10;99.90
38866;DHT22;62686;48.984;8.394;2023-05-10T04:49:14;13.10;99.90
38866;DHT22;62686;48.984;8.394;2023-05-10T04:51:43;13.10;99.90
38866;DHT22;62686;48.984;8.394;2023-05-10T04:54:11;13.10;99.90
38866;DHT22;62686;48.984;8.394;2023-05-10T04:56:40;13.20;99.90
38866;DHT22;62686;48.984;8.394;2023-05-10T04:59:08;13.30;99.90
38866;DHT22;62686;48.984;8.394;2023-05-10T05:01:36;13.30;99.90
38866;DHT22;62686;48.984;8.394;2023-05-10T05:04:06;13.40;99.90
38866;DHT22;62686;48.984;8.394;2023-05-10T05:06:34;13.40;99.90
38866;DHT22;62686;48.984;8.394;2023-05-10T05:09:04;13.50;99.90
38866;DHT22;62686;48.984;8.394;2023-05-10T05:11:32;13.50;99.90
38866;DHT22;62686;48.984;8.394;2023-05-10T05:14:00;13.60;99.90
38866;DHT22;62686;48.984;8.394;2023-05-10T05:16:30;13.60;99.90
38866;DHT22;62686;48.984;8.394;2023-05-10T05:18:59;13.60;99.90
38866;DHT22;62686;48.984;8.394;2023-05-10T05:21:29;13.60;99.90
38866;DHT22;62686;48.984;8.394;2023-05-10T05:23:58;13.50;99.90
38866;DHT22;62686;48.984;8.394;2023-05-10T05:26:27;13.60;99.90
38866;DHT22;62686;48.984;8.394;2023-05-10T05:28:55;13.60;99.90
38866;DHT22;62686;48.984;8.394;2023-05-10T05:31:24;13.60;99.90
38866;DHT22;62686;48.984;8.394;2023-05-10T05:33:52;13.70;99.90
38866;DHT22;62686;48.984;8.394;2023-05-10T05:36:20;13.80;99.90
38866;DHT22;62686;48.984;8.394;2023-05-10T05:38:50;13.90;99.90
38866;DHT22;62686;48.984;8.394;2023-05-10T05:41:18;14.00;99.90
38866;DHT22;62686;48.984;8.394;2023-05-10T05:43:46;14.10;99.90
38866;DHT22;62686;48.984;8.394;2023-05-10T05:46:14;14.10;99.90
38866;DHT22;62686;48.984;8.394;2023-05-10T05:48:43;14.10;99.90
38866;DHT22;62686;48.984;8.394;2023-05-10T05:51:11;14.10;99.90
38866;DHT22;62686;48.984;8.394;2023-05-10T05:53:39;14.20;99.90
38866;DHT22;62686;48.984;8.394;2023-05-10T05:56:09;14.20;99.90
38866;DHT22;62686;48.984;8.394;2023-05-10T05:58:37;14.30;99.90
38866;DHT22;62686;48.984;8.394;2023-05-10T06:01:05;14.30;99.90
38866;DHT22;62686;48.984;8.394;2023-05-10T06:03:34;14.30;99.90
38866;DHT22;62686;48.984;8.394;2023-05-10T06:06:02;14.40;99.90
38866;DHT22;62686;48.984;8.394;2023-05-10T06:08:31;14.40;99.90
38866;DHT22;62686;48.984;8.394;2023-05-10T06:10:59;14.50;99.90
38866;DHT22;62686;48.984;8.394;2023-05-10T06:13:28;14.70;99.90
38866;DHT22;62686;48.984;8.394;2023-05-10T06:15:59;14.80;99.90
38866;DHT22;62686;48.984;8.394;2023-05-10T06:18:28;15.00;99.90
38866;DHT22;62686;48.984;8.394;2023-05-10T06:20:56;15.20;99.90
38866;DHT22;62686;48.984;8.394;2023-05-10T06:23:24;15.50;99.90
38866;DHT22;62686;48.984;8.394;2023-05-10T06:25:53;15.90;99.90
38866;DHT22;62686;48.984;8.394;2023-05-10T06:28:21;15.90;99.90
38866;DHT22;62686;48.984;8.394;2023-05-10T06:30:51;15.90;99.90
38866;DHT22;62686;48.984;8.394;2023-05-10T06:33:19;15.80;99.90
38866;DHT22;62686;48.984;8.394;2023-05-10T06:35:47;15.70;99.90
38866;DHT22;62686;48.984;8.394;2023-05-10T06:38:15;15.60;99.90
38866;DHT22;62686;48.984;8.394;2023-05-10T06:40:43;15.50;99.90
38866;DHT22;62686;48.984;8.394;2023-05-10T06:43:12;15.50;99.90
38866;DHT22;62686;48.984;8.394;2023-05-10T06:45:40;15.70;99.90
38866;DHT22;62686;48.984;8.394;2023-05-10T06:48:10;16.00;99.90
38866;DHT22;62686;48.984;8.394;2023-05-10T06:50:38;16.10;99.90
38866;DHT22;62686;48.984;8.394;2023-05-10T06:53:06;16.40;99.90
38866;DHT22;62686;48.984;8.394;2023-05-10T06:55:35;16.70;99.90
38866;DHT22;62686;48.984;8.394;2023-05-10T06:58:03;16.80;99.90
38866;DHT22;62686;48.984;8.394;2023-05-10T07:00:31;16.80;99.90
38866;DHT22;62686;48.984;8.394;2023-05-10T07:03:00;16.80;99.90
38866;DHT22;62686;48.984;8.394;2023-05-10T07:05:30;16.90;99.90
38866;DHT22;62686;48.984;8.394;2023-05-10T07:07:58;17.10;99.90
38866;DHT22;62686;48.984;8.394;2023-05-10T07:10:26;17.20;99.90
38866;DHT22;62686;48.984;8.394;2023-05-10T07:12:54;17.50;99.90
38866;DHT22;62686;48.984;8.394;2023-05-10T07:15:23;17.80;99.90
38866;DHT22;62686;48.984;8.394;2023-05-10T07:17:51;17.80;99.90
38866;DHT22;62686;48.984;8.394;2023-05-10T07:20:19;17.70;99.90
38866;DHT22;62686;48.984;8.394;2023-05-10T07:22:49;17.70;99.90
38866;DHT22;62686;48.984;8.394;2023-05-10T07:25:17;17.60;99.90
38866;DHT22;62686;48.984;8.394;2023-05-10T07:27:45;17.50;99.90
38866;DHT22;62686;48.984;8.394;2023-05-10T07:30:15;17.00;99.90
38866;DHT22;62686;48.984;8.394;2023-05-10T07:32:43;16.90;99.90
38866;DHT22;62686;48.984;8.394;2023-05-10T07:35:11;16.80;99.90
38866;DHT22;62686;48.984;8.394;2023-05-10T07:37:40;17.10;99.90
38866;DHT22;62686;48.984;8.394;2023-05-10T07:40:10;17.40;99.90
38866;DHT22;62686;48.984;8.394;2023-05-10T07:42:38;17.40;99.90
38866;DHT22;62686;48.984;8.394;2023-05-10T07:45:07;17.40;99.90
38866;DHT22;62686;48.984;8.394;2023-05-10T07:47:36;17.70;99.90
38866;DHT22;62686;48.984;8.394;2023-05-10T07:50:05;18.30;99.90
38866;DHT22;62686;48.984;8.394;2023-05-10T07:52:34;18.90;99.90
38866;DHT22;62686;48.984;8.394;2023-05-10T07:55:02;19.10;99.90
38866;DHT22;62686;48.984;8.394;2023-05-10T07:57:32;19.20;99.90
38866;DHT22;62686;48.984;8.394;2023-05-10T08:00:01;19.30;99.90
38866;DHT22;62686;48.984;8.394;2023-05-10T08:02:29;19.60;99.90
38866;DHT22;62686;48.984;8.394;2023-05-10T08:04:57;19.50;99.90
38866;DHT22;62686;48.984;8.394;2023-05-10T08:07:25;19.40;99.90
38866;DHT22;62686;48.984;8.394;2023-05-10T08:09:56;19.00;99.90
38866;DHT22;62686;48.984;8.394;2023-05-10T08:12:24;18.60;99.90
38866;DHT22;62686;48.984;8.394;2023-05-10T08:14:54;17.90;99.90
38866;DHT22;62686;48.984;8.394;2023-05-10T08:17:22;17.50;99.90
38866;DHT22;62686;48.984;8.394;2023-05-10T08:19:50;17.50;99.90
38866;DHT22;62686;48.984;8.394;2023-05-10T08:22:18;17.50;99.90
38866;DHT22;62686;48.984;8.394;2023-05-10T08:24:47;17.90;99.90
38866;DHT22;62686;48.984;8.394;2023-05-10T08:27:15;18.30;99.90
38866;DHT22;62686;48.984;8.394;2023-05-10T08:29:43;19.40;99.90
38866;DHT22;62686;48.984;8.394;2023-05-10T08:32:16;20.70;99.90
38866;DHT22;62686;48.984;8.394;2023-05-10T08:34:45;20.80;99.90
38866;DHT22;62686;48.984;8.394;2023-05-10T08:37:14;20.40;99.90
38866;DHT22;62686;48.984;8.394;2023-05-10T08:39:44;20.20;99.90
38866;DHT22;62686;48.984;8.394;2023-05-10T08:42:21;20.30;99.90
38866;DHT22;62686;48.984;8.394;2023-05-10T08:44:52;20.60;99.90
38866;DHT22;62686;48.984;8.394;2023-05-10T08:47:25;21.00;99.90
38866;DHT22;62686;48.984;8.394;2023-05-10T08:49:57;20.60;99.90
38866;DHT22;62686;48.984;8.394;2023-05-10T08:52:27;21.10;99.90
38866;DHT22;62686;48.984;8.394;2023-05-10T08:54:56;22.30;99.90
38866;DHT22;62686;48.984;8.394;2023-05-10T08:57:24;22.00;99.90
38866;DHT22;62686;48.984;8.394;2023-05-10T08:59:53;21.70;99.90
38866;DHT22;62686;48.984;8.394;2023-05-10T09:02:23;21.50;99.90
38866;DHT22;62686;48.984;8.394;2023-05-10T09:04:52;20.80;99.90
38866;DHT22;62686;48.984;8.394;2023-05-10T09:07:20;20.50;99.90
38866;DHT22;62686;48.984;8.394;2023-05-10T09:09:49;20.80;99.90
38866;DHT22;62686;48.984;8.394;2023-05-10T09:12:17;20.50;99.90
38866;DHT22;62686;48.984;8.394;2023-05-10T09:14:46;20.20;99.90
38866;DHT22;62686;48.984;8.394;2023-05-10T09:17:14;20.20;99.90
38866;DHT22;62686;48.984;8.394;2023-05-10T09:19:44;20.20;99.90
38866;DHT22;62686;48.984;8.394;2023-05-10T09:22:13;19.80;99.90
38866;DHT22;62686;48.984;8.394;2023-05-10T09:24:42;19.30;99.90
38866;DHT22;62686;48.984;8.394;2023-05-10T09:27:12;18.20;99.90
38866;DHT22;62686;48.984;8.394;2023-05-10T09:29:41;17.40;99.90
38866;DHT22;62686;48.984;8.394;2023-05-10T09:32:09;17.10;99.90
38866;DHT22;62686;48.984;8.394;2023-05-10T09:34:39;17.20;99.90
38866;DHT22;62686;48.984;8.394;2023-05-10T09:37:10;17.40;99.90
38866;DHT22;62686;48.984;8.394;2023-05-10T09:39:38;17.50;99.90
38866;DHT22;62686;48.984;8.394;2023-05-10T09:42:09;17.50;99.90
38866;DHT22;62686;48.984;8.394;2023-05-10T09:44:37;17.30;99.90
38866;DHT22;62686;48.984;8.394;2023-05-10T09:47:07;17.30;99.90
38866;DHT22;62686;48.984;8.394;2023-05-10T09:49:35;17.40;99.90
38866;DHT22;62686;48.984;8.394;2023-05-10T09:52:05;17.50;99.90
38866;DHT22;62686;48.984;8.394;2023-05-10T09:54:35;17.80;99.90
38866;DHT22;62686;48.984;8.394;2023-05-10T09:57:04;18.20;99.90
38866;DHT22;62686;48.984;8.394;2023-05-10T09:59:33;19.00;99.90
38866;DHT22;62686;48.984;8.394;2023-05-10T10:02:02;20.00;99.90
38866;DHT22;62686;48.984;8.394;2023-05-10T10:04:30;21.00;99.90
38866;DHT22;62686;48.984;8.394;2023-05-10T10:07:00;21.60;99.90
38866;DHT22;62686;48.984;8.394;2023-05-10T10:09:29;21.30;99.90
38866;DHT22;62686;48.984;8.394;2023-05-10T10:11:59;20.80;99.90
38866;DHT22;62686;48.984;8.394;2023-05-10T10:14:28;20.80;99.90
38866;DHT22;62686;48.984;8.394;2023-05-10T10:16:56;20.10;99.90
38866;DHT22;62686;48.984;8.394;2023-05-10T10:19:33;19.40;99.90
38866;DHT22;62686;48.984;8.394;2023-05-10T10:22:02;18.40;99.90
38866;DHT22;62686;48.984;8.394;2023-05-10T10:24:30;17.60;99.90
38866;DHT22;62686;48.984;8.394;2023-05-10T10:27:11;17.70;99.90
38866;DHT22;62686;48.984;8.394;2023-05-10T10:29:43;18.20;99.90
38866;DHT22;62686;48.984;8.394;2023-05-10T10:32:21;18.50;99.90
38866;DHT22;62686;48.984;8.394;2023-05-10T10:34:55;18.80;99.90
38866;DHT22;62686;48.984;8.394;2023-05-10T10:37:24;19.70;99.90
38866;DHT22;62686;48.984;8.394;2023-05-10T10:40:26;20.00;99.90
38866;DHT22;62686;48.984;8.394;2023-05-10T10:42:56;20.90;99.90
38866;DHT22;62686;48.984;8.394;2023-05-10T10:45:25;21.10;99.90
38866;DHT22;62686;48.984;8.394;2023-05-10T10:50:56;20.90;99.90
38866;DHT22;62686;48.984;8.394;2023-05-10T10:53:26;20.40;99.90
38866;DHT22;62686;48.984;8.394;2023-05-10T10:56:05;19.60;99.90
38866;DHT22;62686;48.984;8.394;2023-05-10T10:58:38;19.10;99.90
38866;DHT22;62686;48.984;8.394;2023-05-10T11:01:11;19.40;99.90
38866;DHT22;62686;48.984;8.394;2023-05-10T11:03:40;19.50;99.90
38866;DHT22;62686;48.984;8.394;2023-05-10T11:06:08;19.60;99.90
38866;DHT22;62686;48.984;8.394;2023-05-10T11:08:42;19.50;99.90
38866;DHT22;62686;48.984;8.394;2023-05-10T11:11:14;20.00;99.90
38866;DHT22;62686;48.984;8.394;2023-05-10T11:13:46;20.00;99.90
38866;DHT22;62686;48.984;8.394;2023-05-10T11:16:17;19.90;99.90
38866;DHT22;62686;48.984;8.394;2023-05-10T11:18:53;19.80;99.90
38866;DHT22;62686;48.984;8.394;2023-05-10T11:21:22;20.00;99.90
38866;DHT22;62686;48.984;8.394;2023-05-10T11:23:51;20.00;99.90
38866;DHT22;62686;48.984;8.394;2023-05-10T11:26:23;20.00;99.90
38866;DHT22;62686;48.984;8.394;2023-05-10T11:28:54;19.40;99.90
38866;DHT22;62686;48.984;8.394;2023-05-10T11:31:27;19.20;99.90
38866;DHT22;62686;48.984;8.394;2023-05-10T11:33:57;19.00;99.90
38866;DHT22;62686;48.984;8.394;2023-05-10T11:36:27;18.70;99.90
38866;DHT22;62686;48.984;8.394;2023-05-10T11:38:56;18.50;99.90
38866;DHT22;62686;48.984;8.394;2023-05-10T11:41:27;18.50;99.90
38866;DHT22;62686;48.984;8.394;2023-05-10T11:43:58;18.50;99.90
38866;DHT22;62686;48.984;8.394;2023-05-10T11:46:27;18.90;99.90
38866;DHT22;62686;48.984;8.394;2023-05-10T11:48:58;18.70;99.90
38866;DHT22;62686;48.984;8.394;2023-05-10T11:51:28;18.60;99.90
38866;DHT22;62686;48.984;8.394;2023-05-10T11:53:57;18.70;99.90
38866;DHT22;62686;48.984;8.394;2023-05-10T11:56:26;18.60;99.90
38866;DHT22;62686;48.984;8.394;2023-05-10T11:58:57;18.40;99.90
38866;DHT22;62686;48.984;8.394;2023-05-10T12:01:26;18.50;99.90
38866;DHT22;62686;48.984;8.394;2023-05-10T12:03:56;18.80;99.90
38866;DHT22;62686;48.984;8.394;2023-05-10T12:06:27;19.50;99.90
38866;DHT22;62686;48.984;8.394;2023-05-10T12:08:56;20.10;99.90
38866;DHT22;62686;48.984;8.394;2023-05-10T12:11:25;21.40;99.90
38866;DHT22;62686;48.984;8.394;2023-05-10T12:13:54;21.80;99.90
38866;DHT22;62686;48.984;8.394;2023-05-10T12:16:25;21.50;99.90
38866;DHT22;62686;48.984;8.394;2023-05-10T12:18:57;21.40;99.90
38866;DHT22;62686;48.984;8.394;2023-05-10T12:21:27;22.40;99.90
38866;DHT22;62686;48.984;8.394;2023-05-10T12:23:59;22.40;99.90
38866;DHT22;62686;48.984;8.394;2023-05-10T12:26:28;21.80;99.90
38866;DHT22;62686;48.984;8.394;2023-05-10T12:29:12;20.30;99.90
38866;DHT22;62686;48.984;8.394;2023-05-10T12:31:56;20.10;99.90
38866;DHT22;62686;48.984;8.394;2023-05-10T12:34:26;20.40;99.90
38866;DHT22;62686;48.984;8.394;2023-05-10T12:36:54;20.30;99.90
38866;DHT22;62686;48.984;8.394;2023-05-10T12:39:23;20.60;99.90
38866;DHT22;62686;48.984;8.394;2023-05-10T12:41:51;20.90;99.90
38866;DHT22;62686;48.984;8.394;2023-05-10T12:44:20;21.40;99.90
38866;DHT22;62686;48.984;8.394;2023-05-10T12:46:48;22.10;99.90
38866;DHT22;62686;48.984;8.394;2023-05-10T12:49:18;22.60;99.90
38866;DHT22;62686;48.984;8.394;2023-05-10T12:51:49;23.00;99.90
38866;DHT22;62686;48.984;8.394;2023-05-10T12:54:17;23.00;99.90
38866;DHT22;62686;48.984;8.394;2023-05-10T12:56:45;22.20;99.90
38866;DHT22;62686;48.984;8.394;2023-05-10T12:59:13;22.10;99.90
38866;DHT22;62686;48.984;8.394;2023-05-10T13:01:42;21.80;99.90
38866;DHT22;62686;48.984;8.394;2023-05-10T13:04:10;21.70;99.90
38866;DHT22;62686;48.984;8.394;2023-05-10T13:06:39;21.70;99.90
38866;DHT22;62686;48.984;8.394;2023-05-10T13:09:08;22.10;99.90
38866;DHT22;62686;48.984;8.394;2023-05-10T13:11:40;21.70;99.90
38866;DHT22;62686;48.984;8.394;2023-05-10T13:14:16;21.80;99.90
38866;DHT22;62686;48.984;8.394;2023-05-10T13:16:47;22.00;99.90
38866;DHT22;62686;48.984;8.394;2023-05-10T13:19:16;21.50;99.90
38866;DHT22;62686;48.984;8.394;2023-05-10T13:21:53;21.90;99.90
38866;DHT22;62686;48.984;8.394;2023-05-10T13:24:23;21.70;99.90
38866;DHT22;62686;48.984;8.394;2023-05-10T13:26:51;21.50;99.90
38866;DHT22;62686;48.984;8.394;2023-05-10T13:29:21;21.80;99.90
38866;DHT22;62686;48.984;8.394;2023-05-10T13:31:50;21.30;99.90
38866;DHT22;62686;48.984;8.394;2023-05-10T13:34:18;20.70;99.90
38866;DHT22;62686;48.984;8.394;2023-05-10T13:36:48;21.30;99.90
38866;DHT22;62686;48.984;8.394;2023-05-10T13:39:18;21.80;99.90
38866;DHT22;62686;48.984;8.394;2023-05-10T13:41:46;21.60;99.90
38866;DHT22;62686;48.984;8.394;2023-05-10T13:44:15;22.00;99.90
38866;DHT22;62686;48.984;8.394;2023-05-10T13:46:43;21.90;99.90
38866;DHT22;62686;48.984;8.394;2023-05-10T13:49:11;21.70;99.90
38866;DHT22;62686;48.984;8.394;2023-05-10T13:51:40;21.60;99.90
38866;DHT22;62686;48.984;8.394;2023-05-10T13:54:08;21.90;99.90
38866;DHT22;62686;48.984;8.394;2023-05-10T13:56:40;22.10;99.90
38866;DHT22;62686;48.984;8.394;2023-05-10T13:59:09;21.40;99.90
38866;DHT22;62686;48.984;8.394;2023-05-10T14:01:38;21.10;99.90
38866;DHT22;62686;48.984;8.394;2023-05-10T14:04:06;20.70;99.90
38866;DHT22;62686;48.984;8.394;2023-05-10T14:06:37;20.50;99.90
38866;DHT22;62686;48.984;8.394;2023-05-10T14:09:05;19.90;99.90
38866;DHT22;62686;48.984;8.394;2023-05-10T14:11:33;19.30;99.90
38866;DHT22;62686;48.984;8.394;2023-05-10T14:14:03;18.90;99.90
38866;DHT22;62686;48.984;8.394;2023-05-10T14:16:33;18.60;99.90
38866;DHT22;62686;48.984;8.394;2023-05-10T14:19:02;18.50;99.90
38866;DHT22;62686;48.984;8.394;2023-05-10T14:21:31;18.50;99.90
38866;DHT22;62686;48.984;8.394;2023-05-10T14:23:59;18.50;99.90
38866;DHT22;62686;48.984;8.394;2023-05-10T14:26:27;18.30;99.90
38866;DHT22;62686;48.984;8.394;2023-05-10T14:28:55;18.50;99.90
38866;DHT22;62686;48.984;8.394;2023-05-10T14:31:26;18.80;99.90
38866;DHT22;62686;48.984;8.394;2023-05-10T14:33:54;19.50;99.90
38866;DHT22;62686;48.984;8.394;2023-05-10T14:36:22;20.40;99.90
38866;DHT22;62686;48.984;8.394;2023-05-10T14:38:50;22.80;99.90
38866;DHT22;62686;48.984;8.394;2023-05-10T14:41:19;23.90;99.90
38866;DHT22;62686;48.984;8.394;2023-05-10T14:43:47;24.90;99.90
38866;DHT22;62686;48.984;8.394;2023-05-10T14:46:15;25.10;99.90
38866;DHT22;62686;48.984;8.394;2023-05-10T14:48:45;25.00;99.90
38866;DHT22;62686;48.984;8.394;2023-05-10T14:51:14;25.40;99.90
38866;DHT22;62686;48.984;8.394;2023-05-10T14:53:42;25.90;99.90
38866;DHT22;62686;48.984;8.394;2023-05-10T14:56:11;25.10;99.90
38866;DHT22;62686;48.984;8.394;2023-05-10T14:58:39;24.50;99.90
38866;DHT22;62686;48.984;8.394;2023-05-10T15:01:07;24.60;99.90
38866;DHT22;62686;48.984;8.394;2023-05-10T15:03:36;24.90;99.90
38866;DHT22;62686;48.984;8.394;2023-05-10T15:06:07;25.20;99.90
38866;DHT22;62686;48.984;8.394;2023-05-10T15:08:35;24.80;99.90
38866;DHT22;62686;48.984;8.394;2023-05-10T15:11:04;23.60;99.90
38866;DHT22;62686;48.984;8.394;2023-05-10T15:13:32;22.70;99.90
38866;DHT22;62686;48.984;8.394;2023-05-10T15:16:00;22.00;99.90
38866;DHT22;62686;48.984;8.394;2023-05-10T15:18:29;21.60;99.90
38866;DHT22;62686;48.984;8.394;2023-05-10T15:20:57;21.20;99.90
38866;DHT22;62686;48.984;8.394;2023-05-10T15:23:27;20.80;99.90
38866;DHT22;62686;48.984;8.394;2023-05-10T15:25:56;20.50;99.90
38866;DHT22;62686;48.984;8.394;2023-05-10T15:28:24;20.20;99.90
38866;DHT22;62686;48.984;8.394;2023-05-10T15:30:53;19.90;99.90
38866;DHT22;62686;48.984;8.394;2023-05-10T15:33:21;19.80;99.90
38866;DHT22;62686;48.984;8.394;2023-05-10T15:35:49;19.80;99.90
38866;DHT22;62686;48.984;8.394;2023-05-10T15:38:17;19.90;99.90
38866;DHT22;62686;48.984;8.394;2023-05-10T15:40:47;19.90;99.90
38866;DHT22;62686;48.984;8.394;2023-05-10T15:43:15;19.90;99.90
38866;DHT22;62686;48.984;8.394;2023-05-10T15:45:44;19.80;99.90
38866;DHT22;62686;48.984;8.394;2023-05-10T15:48:12;19.80;99.90